createdAt,value
2023-05-14T00:00:30.989Z,0
2023-05-14T00:01:45.310Z,0
2023-05-14T00:02:59.592Z,0
2023-05-14T00:04:14.001Z,0
2023-05-14T00:05:28.406Z,0
2023-05-14T00:06:42.743Z,0
2023-05-14T00:07:57.006Z,0
2023-05-14T00:09:11.292Z,0
2023-05-14T00:10:25.697Z,0
2023-05-14T00:11:40.029Z,0
2023-05-14T00:12:54.309Z,0
2023-05-14T00:14:08.586Z,0
2023-05-14T00:15:22.990Z,0
2023-05-14T00:16:37.309Z,0
2023-05-14T00:17:51.594Z,0
2023-05-14T00:19:05.882Z,0
2023-05-14T00:20:20.291Z,0
2023-05-14T00:21:34.606Z,0
2023-05-14T00:22:48.893Z,0
2023-05-14T00:24:03.178Z,0
2023-05-14T00:25:17.571Z,0
2023-05-14T00:27:46.183Z,0
2023-05-14T00:29:00.589Z,0
2023-05-14T00:30:15.001Z,0
2023-05-14T00:31:29.313Z,0
2023-05-14T00:32:43.594Z,0
2023-05-14T00:33:57.884Z,0
2023-05-14T00:35:12.292Z,0
2023-05-14T00:36:26.611Z,0
2023-05-14T00:37:40.889Z,0
2023-05-14T00:38:55.163Z,0
2023-05-14T00:40:09.583Z,0
2023-05-14T00:41:23.891Z,0
2023-05-14T00:42:38.186Z,0
2023-05-14T00:43:52.463Z,0
2023-05-14T00:46:21.186Z,0
2023-05-14T00:47:35.481Z,0
2023-05-14T00:48:49.748Z,0
2023-05-14T00:50:04.156Z,0
2023-05-14T00:51:18.485Z,0
2023-05-14T00:52:32.758Z,0
2023-05-14T00:53:47.170Z,0
2023-05-14T00:55:01.578Z,0
2023-05-14T00:56:15.893Z,0
2023-05-14T00:57:30.173Z,0
2023-05-14T00:58:44.590Z,0
2023-05-14T00:59:58.984Z,0
2023-05-14T01:01:13.312Z,0
2023-05-14T01:02:27.603Z,0
2023-05-14T01:03:41.883Z,0
2023-05-14T01:04:56.288Z,0
2023-05-14T01:06:10.604Z,0
2023-05-14T01:07:24.885Z,0
2023-05-14T01:08:39.169Z,0
2023-05-14T01:09:53.583Z,0
2023-05-14T01:11:07.901Z,0
2023-05-14T01:12:22.179Z,0
2023-05-14T01:13:36.458Z,0
2023-05-14T01:14:50.865Z,0
2023-05-14T01:16:05.196Z,0
2023-05-14T01:17:19.478Z,0
2023-05-14T01:18:33.874Z,0
2023-05-14T01:19:48.284Z,0
2023-05-14T01:21:02.614Z,0
2023-05-14T01:22:16.891Z,0
2023-05-14T01:23:31.166Z,0
2023-05-14T01:24:45.572Z,0
2023-05-14T01:25:59.887Z,0
2023-05-14T01:27:14.186Z,0
2023-05-14T01:28:28.452Z,0
2023-05-14T01:29:42.865Z,0
2023-05-14T01:30:57.185Z,0
2023-05-14T01:32:11.476Z,0
2023-05-14T01:33:25.760Z,0
2023-05-14T01:34:40.150Z,0
2023-05-14T01:35:54.491Z,0
2023-05-14T01:37:08.769Z,0
2023-05-14T01:38:23.156Z,0
2023-05-14T01:39:37.576Z,0
2023-05-14T01:40:51.886Z,0
2023-05-14T01:42:06.172Z,0
2023-05-14T01:43:20.460Z,0
2023-05-14T01:44:34.870Z,0
2023-05-14T01:45:49.178Z,0
2023-05-14T01:47:03.468Z,0
2023-05-14T01:48:17.741Z,0
2023-05-14T01:49:32.149Z,0
2023-05-14T01:50:46.480Z,0
2023-05-14T01:52:00.762Z,0
2023-05-14T01:53:15.041Z,0
2023-05-14T01:54:29.436Z,0
2023-05-14T01:55:43.766Z,0
2023-05-14T01:56:58.057Z,0
2023-05-14T01:58:12.338Z,0
2023-05-14T01:59:26.735Z,0
2023-05-14T02:00:41.056Z,0
2023-05-14T02:01:55.333Z,0
2023-05-14T02:03:09.747Z,0
2023-05-14T02:04:24.152Z,0
2023-05-14T02:05:38.465Z,0
2023-05-14T02:06:52.750Z,0
2023-05-14T02:08:07.029Z,0
2023-05-14T02:09:21.440Z,0
2023-05-14T02:10:35.770Z,0
2023-05-14T02:11:50.044Z,0
2023-05-14T02:13:04.322Z,0
2023-05-14T02:14:18.737Z,0
2023-05-14T02:15:33.064Z,0
2023-05-14T02:16:47.337Z,0
2023-05-14T02:18:01.625Z,0
2023-05-14T02:19:16.017Z,0
2023-05-14T02:20:30.357Z,0
2023-05-14T02:21:44.636Z,0
2023-05-14T02:22:58.912Z,0
2023-05-14T02:24:13.310Z,0
2023-05-14T02:25:27.641Z,0
2023-05-14T02:26:41.919Z,0
2023-05-14T02:29:10.739Z,0
2023-05-14T02:30:25.063Z,0
2023-05-14T02:31:39.330Z,0
2023-05-14T02:32:53.628Z,0
2023-05-14T02:34:08.021Z,0
2023-05-14T02:35:22.348Z,0
2023-05-14T02:36:36.624Z,0
2023-05-14T02:37:50.913Z,0
2023-05-14T02:39:05.325Z,0
2023-05-14T02:40:19.648Z,0
2023-05-14T02:41:33.927Z,0
2023-05-14T02:42:48.198Z,0
2023-05-14T02:44:02.618Z,0
2023-05-14T02:45:16.887Z,1
2023-05-14T02:46:31.170Z,0
2023-05-14T02:47:45.565Z,0
2023-05-14T02:48:59.968Z,0
2023-05-14T02:50:14.296Z,0
2023-05-14T02:51:28.572Z,0
2023-05-14T02:52:42.810Z,1
2023-05-14T02:53:57.127Z,1
2023-05-14T02:55:11.360Z,1
2023-05-14T02:56:25.581Z,1
2023-05-14T02:57:39.822Z,2
2023-05-14T02:58:54.095Z,0
2023-05-14T03:00:08.510Z,0
2023-05-14T03:01:22.743Z,2
2023-05-14T03:02:36.972Z,1
2023-05-14T03:03:51.187Z,3
2023-05-14T03:05:05.553Z,2
2023-05-14T03:06:19.854Z,4
2023-05-14T03:07:34.106Z,3
2023-05-14T03:08:48.313Z,8
2023-05-14T03:10:02.547Z,5
2023-05-14T03:11:16.769Z,7
2023-05-14T03:12:31.067Z,3
2023-05-14T03:13:45.308Z,8
2023-05-14T03:14:59.543Z,9
2023-05-14T03:16:13.763Z,13
2023-05-14T03:17:28.000Z,13
2023-05-14T03:18:42.300Z,14
2023-05-14T03:19:56.530Z,18
2023-05-14T03:21:10.773Z,23
2023-05-14T03:22:25.120Z,26
2023-05-14T03:23:39.338Z,25
2023-05-14T03:24:53.637Z,30
2023-05-14T03:26:07.870Z,37
2023-05-14T03:27:22.109Z,50
2023-05-14T03:28:36.330Z,56
2023-05-14T03:29:50.568Z,58
2023-05-14T03:31:04.857Z,70
2023-05-14T03:32:19.104Z,77
2023-05-14T03:33:33.325Z,91
2023-05-14T03:34:47.553Z,105
2023-05-14T03:36:01.783Z,109
2023-05-14T03:37:16.073Z,124
2023-05-14T03:38:30.324Z,139
2023-05-14T03:39:44.539Z,154
2023-05-14T03:40:58.771Z,170
2023-05-14T03:42:13.006Z,174
2023-05-14T03:43:27.300Z,195
2023-05-14T03:44:41.534Z,219
2023-05-14T03:45:55.776Z,234
2023-05-14T03:47:09.993Z,252
2023-05-14T03:48:24.217Z,261
2023-05-14T03:49:38.530Z,286
2023-05-14T03:50:52.768Z,309
2023-05-14T03:52:07.111Z,326
2023-05-14T03:53:21.334Z,348
2023-05-14T03:54:35.559Z,354
2023-05-14T03:55:49.870Z,388
2023-05-14T03:57:04.112Z,423
2023-05-14T03:58:18.333Z,462
2023-05-14T03:59:32.550Z,509
2023-05-14T04:00:46.792Z,525
2023-05-14T04:02:01.093Z,571
2023-05-14T04:03:15.329Z,618
2023-05-14T04:04:29.550Z,660
2023-05-14T04:05:43.778Z,694
2023-05-14T04:06:57.996Z,723
2023-05-14T04:08:12.314Z,761
2023-05-14T04:09:26.541Z,802
2023-05-14T04:10:40.771Z,850
2023-05-14T04:11:55.113Z,910
2023-05-14T04:13:09.345Z,945
2023-05-14T04:14:23.649Z,1013
2023-05-14T04:15:37.881Z,1072
2023-05-14T04:16:52.113Z,1115
2023-05-14T04:18:06.348Z,1144
2023-05-14T04:19:20.569Z,1166
2023-05-14T04:20:34.875Z,1204
2023-05-14T04:21:49.111Z,1247
2023-05-14T04:23:03.328Z,1289
2023-05-14T04:24:17.555Z,1329
2023-05-14T04:25:31.790Z,1361
2023-05-14T04:26:46.087Z,1410
2023-05-14T04:28:00.337Z,1458
2023-05-14T04:29:14.557Z,1506
2023-05-14T04:30:28.788Z,1553
2023-05-14T04:31:43.011Z,1577
2023-05-14T04:32:57.304Z,1625
2023-05-14T04:34:11.562Z,1676
2023-05-14T04:35:25.777Z,1726
2023-05-14T04:36:40.014Z,1783
2023-05-14T04:37:54.240Z,1809
2023-05-14T04:39:08.536Z,1866
2023-05-14T04:40:22.779Z,1930
2023-05-14T04:41:37.005Z,1997
2023-05-14T04:42:51.236Z,2075
2023-05-14T04:44:05.579Z,2093
2023-05-14T04:45:19.869Z,2161
2023-05-14T04:46:34.122Z,2243
2023-05-14T04:47:48.339Z,2332
2023-05-14T04:49:02.578Z,2379
2023-05-14T04:50:16.806Z,2393
2023-05-14T04:51:31.091Z,2484
2023-05-14T04:52:45.334Z,2480
2023-05-14T04:53:59.563Z,2541
2023-05-14T04:55:13.783Z,2671
2023-05-14T04:56:28.020Z,2718
2023-05-14T04:57:42.319Z,2772
2023-05-14T04:58:56.560Z,2929
2023-05-14T05:00:10.777Z,3010
2023-05-14T05:01:25.007Z,3177
2023-05-14T05:02:39.238Z,3150
2023-05-14T05:03:53.547Z,3300
2023-05-14T05:05:07.783Z,3401
2023-05-14T05:06:21.998Z,3420
2023-05-14T05:07:36.235Z,3401
2023-05-14T05:08:50.464Z,3405
2023-05-14T05:10:04.756Z,3378
2023-05-14T05:11:19.003Z,3281
2023-05-14T05:12:33.227Z,3132
2023-05-14T05:13:47.450Z,3107
2023-05-14T05:15:01.690Z,3170
2023-05-14T05:16:15.977Z,3031
2023-05-14T05:17:30.225Z,2758
2023-05-14T05:18:44.456Z,2714
2023-05-14T05:19:58.669Z,2707
2023-05-14T05:21:12.892Z,2676
2023-05-14T05:22:27.206Z,2929
2023-05-14T05:23:41.442Z,2839
2023-05-14T05:24:55.663Z,2744
2023-05-14T05:26:09.902Z,2747
2023-05-14T05:27:24.116Z,2725
2023-05-14T05:28:38.421Z,2839
2023-05-14T05:29:52.714Z,2962
2023-05-14T05:31:07.015Z,3088
2023-05-14T05:32:20.306Z,3110
2023-05-14T05:33:34.609Z,3151
2023-05-14T05:34:48.836Z,3259
2023-05-14T05:36:03.068Z,3331
2023-05-14T05:37:17.301Z,3370
2023-05-14T05:38:31.517Z,3413
2023-05-14T05:39:45.818Z,3402
2023-05-14T05:41:00.062Z,3377
2023-05-14T05:42:14.293Z,3365
2023-05-14T05:43:28.522Z,3308
2023-05-14T05:44:42.749Z,3322
2023-05-14T05:45:57.048Z,3259
2023-05-14T05:47:11.296Z,3177
2023-05-14T05:48:25.521Z,3150
2023-05-14T05:49:39.746Z,3164
2023-05-14T05:50:53.974Z,3205
2023-05-14T05:52:08.268Z,3207
2023-05-14T05:53:22.510Z,3237
2023-05-14T05:54:36.726Z,3378
2023-05-14T05:55:50.961Z,3451
2023-05-14T05:57:05.179Z,3467
2023-05-14T05:58:19.492Z,3804
2023-05-14T05:59:33.721Z,4216
2023-05-14T06:00:47.950Z,4207
2023-05-14T06:02:02.172Z,4525
2023-05-14T06:03:16.468Z,4514
2023-05-14T06:04:30.767Z,4668
2023-05-14T06:05:45.048Z,5137
2023-05-14T06:06:59.329Z,5200
2023-05-14T06:08:12.630Z,5425
2023-05-14T06:09:26.931Z,5188
2023-05-14T06:10:41.160Z,5402
2023-05-14T06:11:55.389Z,5763
2023-05-14T06:13:09.631Z,6361
2023-05-14T06:14:23.850Z,6122
2023-05-14T06:15:38.146Z,8341
2023-05-14T06:16:52.387Z,9622
2023-05-14T06:18:06.605Z,11935
2023-05-14T06:19:20.847Z,14804
2023-05-14T06:20:35.058Z,10314
2023-05-14T06:21:49.374Z,8605
2023-05-14T06:23:03.600Z,17922
2023-05-14T06:24:17.832Z,16852
2023-05-14T06:25:32.058Z,17198
2023-05-14T06:26:46.000Z,18071
2023-05-14T06:28:00.591Z,16026
2023-05-14T06:29:14.822Z,16468
2023-05-14T06:30:29.060Z,14386
2023-05-14T06:31:43.274Z,13324
2023-05-14T06:32:57.510Z,12664
2023-05-14T06:34:11.816Z,15165
2023-05-14T06:35:26.058Z,7746
2023-05-14T06:36:40.278Z,13973
2023-05-14T06:37:54.506Z,15169
2023-05-14T06:39:08.783Z,14644
2023-05-14T06:40:23.079Z,13372
2023-05-14T06:41:37.377Z,16417
2023-05-14T06:42:50.717Z,16672
2023-05-14T06:44:04.020Z,17866
2023-05-14T06:45:18.265Z,18619
2023-05-14T06:46:32.481Z,19325
2023-05-14T06:47:46.706Z,19396
2023-05-14T06:49:00.946Z,20974
2023-05-14T06:50:15.248Z,18918
2023-05-14T06:51:29.486Z,19230
2023-05-14T06:52:43.000Z,20117
2023-05-14T06:53:57.923Z,20696
2023-05-14T06:55:12.154Z,21787
2023-05-14T06:56:26.464Z,24286
2023-05-14T06:57:40.697Z,23644
2023-05-14T06:58:54.921Z,25176
2023-05-14T07:00:09.156Z,24843
2023-05-14T07:01:23.374Z,26878
2023-05-14T07:02:37.685Z,27388
2023-05-14T07:03:51.922Z,27345
2023-05-14T07:05:06.147Z,25602
2023-05-14T07:06:20.376Z,27478
2023-05-14T07:07:34.604Z,27412
2023-05-14T07:08:48.899Z,25180
2023-05-14T07:10:03.152Z,17084
2023-05-14T07:11:17.372Z,12907
2023-05-14T07:12:31.586Z,9507
2023-05-14T07:13:45.813Z,8005
2023-05-14T07:15:00.179Z,10369
2023-05-14T07:16:14.457Z,15615
2023-05-14T07:17:27.766Z,26906
2023-05-14T07:18:41.985Z,27878
2023-05-14T07:19:56.286Z,28569
2023-05-14T07:21:10.521Z,28453
2023-05-14T07:22:24.757Z,30900
2023-05-14T07:23:38.971Z,23978
2023-05-14T07:24:53.210Z,5218
2023-05-14T07:26:07.506Z,15231
2023-05-14T07:27:21.748Z,12757
2023-05-14T07:28:35.982Z,13634
2023-05-14T07:29:50.210Z,8090
2023-05-14T07:31:04.419Z,11938
2023-05-14T07:32:18.735Z,15511
2023-05-14T07:33:32.975Z,16088
2023-05-14T07:34:47.205Z,13839
2023-05-14T07:36:01.429Z,15175
2023-05-14T07:37:15.657Z,13319
2023-05-14T07:38:29.960Z,16081
2023-05-14T07:39:44.197Z,15664
2023-05-14T07:42:12.653Z,10093
2023-05-14T07:43:26.875Z,10831
2023-05-14T07:44:41.167Z,12320
2023-05-14T07:45:55.422Z,11467
2023-05-14T07:47:09.638Z,18558
2023-05-14T07:48:23.934Z,16157
2023-05-14T07:49:37.246Z,14399
2023-05-14T07:50:51.535Z,14032
2023-05-14T07:52:04.833Z,26745
2023-05-14T07:53:19.053Z,75431
2023-05-14T07:54:33.372Z,74878
2023-05-14T07:55:47.612Z,75798
2023-05-14T07:57:01.825Z,76380
2023-05-14T07:58:16.062Z,22415
2023-05-14T07:59:30.278Z,11568
2023-05-14T08:00:44.585Z,9883
2023-05-14T08:01:58.825Z,11225
2023-05-14T08:03:13.056Z,11106
2023-05-14T08:04:27.272Z,3906
2023-05-14T08:05:41.508Z,9038
2023-05-14T08:06:55.805Z,14987
2023-05-14T08:08:10.047Z,9988
2023-05-14T08:09:24.274Z,13118
2023-05-14T08:10:38.507Z,9784
2023-05-14T08:11:52.729Z,4687
2023-05-14T08:13:07.036Z,9830
2023-05-14T08:14:21.261Z,5779
2023-05-14T08:15:35.500Z,11351
2023-05-14T08:16:49.711Z,7014
2023-05-14T08:18:03.954Z,20864
2023-05-14T08:19:18.249Z,27426
2023-05-14T08:20:32.495Z,77085
2023-05-14T08:21:46.704Z,78040
2023-05-14T08:23:00.996Z,76225
2023-05-14T08:24:14.323Z,26692
2023-05-14T08:25:28.620Z,78416
2023-05-14T08:26:41.905Z,76592
2023-05-14T08:27:56.134Z,78183
2023-05-14T08:29:10.433Z,81093
2023-05-14T08:30:24.678Z,79030
2023-05-14T08:31:38.896Z,79157
2023-05-14T08:32:53.135Z,79837
2023-05-14T08:34:07.354Z,81661
2023-05-14T08:35:21.663Z,82967
2023-05-14T08:36:35.906Z,80768
2023-05-14T08:37:50.135Z,81290
2023-05-14T08:39:04.359Z,82967
2023-05-14T08:41:32.873Z,80428
2023-05-14T08:42:47.127Z,80053
2023-05-14T08:44:01.359Z,81079
2023-05-14T08:45:15.586Z,82339
2023-05-14T08:46:29.809Z,80923
2023-05-14T08:47:44.103Z,80887
2023-05-14T08:48:58.345Z,79949
2023-05-14T08:50:12.578Z,77950
2023-05-14T08:51:26.794Z,78196
2023-05-14T08:52:41.025Z,78572
2023-05-14T08:53:55.328Z,78023
2023-05-14T08:55:09.572Z,79646
2023-05-14T08:56:23.805Z,80308
2023-05-14T08:57:38.080Z,80591
2023-05-14T08:58:51.379Z,82423
2023-05-14T09:00:05.626Z,82213
2023-05-14T09:01:19.857Z,82483
2023-05-14T09:02:34.072Z,82164
2023-05-14T09:03:48.309Z,81267
2023-05-14T09:05:02.609Z,82647
2023-05-14T09:06:16.847Z,81726
2023-05-14T09:07:31.077Z,80779
2023-05-14T09:08:45.300Z,79540
2023-05-14T09:09:59.536Z,82332
2023-05-14T09:11:13.838Z,82892
2023-05-14T09:12:28.069Z,79651
2023-05-14T09:13:42.308Z,81069
2023-05-14T09:14:56.518Z,79782
2023-05-14T09:16:10.744Z,77424
2023-05-14T09:17:25.050Z,76659
2023-05-14T09:18:39.305Z,82064
2023-05-14T09:19:53.528Z,82839
2023-05-14T09:21:07.747Z,82234
2023-05-14T09:22:21.974Z,79533
2023-05-14T09:23:36.288Z,78312
2023-05-14T09:24:50.519Z,83098
2023-05-14T09:26:04.759Z,82753
2023-05-14T09:27:18.979Z,64363
2023-05-14T09:28:33.205Z,5393
2023-05-14T09:29:47.560Z,76566
2023-05-14T09:31:01.857Z,82475
2023-05-14T09:32:15.139Z,80264
2023-05-14T09:33:29.364Z,75960
2023-05-14T09:34:43.677Z,75792
2023-05-14T09:35:57.908Z,77795
2023-05-14T09:37:12.152Z,75886
2023-05-14T09:38:26.370Z,77662
2023-05-14T09:39:40.607Z,75972
2023-05-14T09:40:54.902Z,76149
2023-05-14T09:42:09.149Z,75906
2023-05-14T09:43:23.376Z,76094
2023-05-14T09:44:37.594Z,79321
2023-05-14T09:45:51.821Z,81784
2023-05-14T09:47:06.133Z,82291
2023-05-14T09:48:20.364Z,82738
2023-05-14T09:49:34.602Z,78165
2023-05-14T09:50:48.829Z,76068
2023-05-14T09:52:03.041Z,76083
2023-05-14T09:53:17.350Z,76111
2023-05-14T09:54:31.587Z,76155
2023-05-14T09:55:45.816Z,75632
2023-05-14T09:57:00.044Z,76088
2023-05-14T09:58:14.280Z,76200
2023-05-14T09:59:28.571Z,76046
2023-05-14T10:00:42.816Z,75976
2023-05-14T10:01:57.049Z,76017
2023-05-14T10:03:11.339Z,75924
2023-05-14T10:04:24.672Z,61649
2023-05-14T10:05:38.971Z,20377
2023-05-14T10:06:52.267Z,75727
2023-05-14T10:08:06.485Z,75813
2023-05-14T10:09:20.784Z,10639
2023-05-14T10:10:35.023Z,76814
2023-05-14T10:11:49.268Z,75984
2023-05-14T10:13:03.481Z,76225
2023-05-14T10:14:17.718Z,75908
2023-05-14T10:15:32.009Z,75960
2023-05-14T10:16:46.250Z,76962
2023-05-14T10:18:00.489Z,77233
2023-05-14T10:19:14.703Z,75879
2023-05-14T10:20:28.933Z,76127
2023-05-14T10:21:43.242Z,75544
2023-05-14T10:22:57.489Z,76013
2023-05-14T10:24:11.706Z,75960
2023-05-14T10:25:26.058Z,78135
2023-05-14T10:26:40.285Z,76164
2023-05-14T10:27:54.591Z,76218
2023-05-14T10:29:08.822Z,76006
2023-05-14T10:30:23.061Z,76040
2023-05-14T10:31:37.283Z,76524
2023-05-14T10:32:51.514Z,76235
2023-05-14T10:34:05.820Z,76194
2023-05-14T10:35:20.058Z,77319
2023-05-14T10:36:34.294Z,76258
2023-05-14T10:37:48.506Z,76168
2023-05-14T10:39:02.738Z,16517
2023-05-14T10:41:31.282Z,76959
2023-05-14T10:42:45.513Z,80942
2023-05-14T10:43:59.744Z,17346
2023-05-14T10:45:13.963Z,67474
2023-05-14T10:46:28.268Z,77100
2023-05-14T10:47:42.518Z,76102
2023-05-14T10:48:56.735Z,76047
2023-05-14T10:50:10.958Z,76134
2023-05-14T10:51:25.201Z,80750
2023-05-14T10:52:39.494Z,76174
2023-05-14T10:53:53.731Z,75938
2023-05-14T10:55:08.103Z,76303
2023-05-14T10:56:22.339Z,76159
2023-05-14T10:58:50.980Z,78079
2023-05-14T11:00:05.238Z,82336
2023-05-14T11:01:19.467Z,76257
2023-05-14T11:02:33.676Z,75922
2023-05-14T11:03:47.910Z,75970
2023-05-14T11:05:02.218Z,76147
2023-05-14T11:06:16.464Z,76016
2023-05-14T11:07:30.686Z,76088
2023-05-14T11:08:44.902Z,31132
2023-05-14T11:09:59.133Z,13926
2023-05-14T11:11:13.446Z,68138
2023-05-14T11:12:27.694Z,76470
2023-05-14T11:13:41.914Z,76364
2023-05-14T11:14:56.146Z,76321
2023-05-14T11:16:10.373Z,78343
2023-05-14T11:17:24.672Z,77799
2023-05-14T11:18:38.904Z,76603
2023-05-14T11:19:53.262Z,76054
2023-05-14T11:21:07.496Z,75862
2023-05-14T11:22:21.863Z,77282
2023-05-14T11:23:36.154Z,27197
2023-05-14T11:24:50.413Z,11864
2023-05-14T11:26:04.748Z,11123
2023-05-14T11:27:18.987Z,10203
2023-05-14T11:28:33.209Z,9212
2023-05-14T11:29:47.507Z,7651
2023-05-14T11:31:01.763Z,6748
2023-05-14T11:32:15.979Z,6405
2023-05-14T11:33:30.203Z,6285
2023-05-14T11:34:44.437Z,6217
2023-05-14T11:35:58.731Z,6223
2023-05-14T11:37:12.973Z,6460
2023-05-14T11:38:27.208Z,6732
2023-05-14T11:39:41.421Z,7240
2023-05-14T11:40:55.667Z,7579
2023-05-14T11:42:09.950Z,8250
2023-05-14T11:43:24.204Z,9112
2023-05-14T11:44:38.549Z,20248
2023-05-14T11:45:52.782Z,14589
2023-05-14T11:47:07.156Z,83542
2023-05-14T11:48:21.449Z,83139
2023-05-14T11:49:35.684Z,79441
2023-05-14T11:50:49.906Z,77238
2023-05-14T11:52:04.150Z,77570
2023-05-14T11:53:18.365Z,81916
2023-05-14T11:54:32.670Z,82067
2023-05-14T11:55:46.920Z,82903
2023-05-14T11:57:01.136Z,83390
2023-05-14T11:58:15.369Z,81839
2023-05-14T11:59:29.585Z,79925
2023-05-14T12:00:43.894Z,79013
2023-05-14T12:01:58.124Z,83389
2023-05-14T12:03:12.359Z,80172
2023-05-14T12:04:26.589Z,78409
2023-05-14T12:05:40.818Z,79393
2023-05-14T12:06:55.107Z,79749
2023-05-14T12:08:09.352Z,83228
2023-05-14T12:09:23.578Z,79653
2023-05-14T12:10:37.805Z,80213
2023-05-14T12:11:52.037Z,76424
2023-05-14T12:13:06.346Z,79359
2023-05-14T12:14:20.593Z,80097
2023-05-14T12:15:34.803Z,82621
2023-05-14T12:16:49.177Z,76357
2023-05-14T12:18:03.418Z,83512
2023-05-14T12:19:17.722Z,79775
2023-05-14T12:20:31.953Z,82696
2023-05-14T12:21:46.188Z,81877
2023-05-14T12:23:00.408Z,82690
2023-05-14T12:24:14.646Z,82182
2023-05-14T12:25:28.939Z,79145
2023-05-14T12:26:43.185Z,77928
2023-05-14T12:27:57.415Z,26845
2023-05-14T12:29:11.643Z,72704
2023-05-14T12:30:25.860Z,19073
2023-05-14T12:31:40.172Z,74981
2023-05-14T12:32:54.407Z,28358
2023-05-14T12:34:08.637Z,32730
2023-05-14T12:35:22.862Z,29259
2023-05-14T12:36:37.207Z,27172
2023-05-14T12:37:51.515Z,18180
2023-05-14T12:39:05.764Z,13406
2023-05-14T12:40:19.978Z,13125
2023-05-14T12:41:34.214Z,20608
2023-05-14T12:42:48.444Z,22537
2023-05-14T12:44:02.751Z,13309
2023-05-14T12:45:16.990Z,13115
2023-05-14T12:46:31.199Z,13138
2023-05-14T12:47:45.437Z,13433
2023-05-14T12:48:59.655Z,15927
2023-05-14T12:50:13.960Z,14008
2023-05-14T12:51:28.211Z,25394
2023-05-14T12:52:42.426Z,22993
2023-05-14T12:53:56.661Z,16825
2023-05-14T12:55:10.884Z,16660
2023-05-14T12:56:25.190Z,18935
2023-05-14T12:57:39.423Z,22811
2023-05-14T12:58:53.662Z,24665
2023-05-14T13:00:07.887Z,82116
2023-05-14T13:01:22.102Z,83239
2023-05-14T13:02:36.410Z,82143
2023-05-14T13:03:50.658Z,79725
2023-05-14T13:05:04.871Z,80165
2023-05-14T13:06:19.094Z,81341
2023-05-14T13:07:33.320Z,81123
2023-05-14T13:08:47.632Z,83935
2023-05-14T13:10:01.872Z,81219
2023-05-14T13:11:16.092Z,79873
2023-05-14T13:12:30.330Z,76221
2023-05-14T13:13:44.548Z,73865
2023-05-14T13:14:58.860Z,82504
2023-05-14T13:16:13.101Z,23344
2023-05-14T13:17:27.313Z,16877
2023-05-14T13:18:41.560Z,13489
2023-05-14T13:19:55.770Z,13216
2023-05-14T13:21:10.069Z,12922
2023-05-14T13:22:24.374Z,13956
2023-05-14T13:23:37.669Z,9540
2023-05-14T13:24:51.908Z,14596
2023-05-14T13:26:06.211Z,18134
2023-05-14T13:27:20.438Z,14034
2023-05-14T13:28:34.680Z,14545
2023-05-14T13:29:48.897Z,12654
2023-05-14T13:31:03.118Z,12116
2023-05-14T13:32:17.430Z,11645
2023-05-14T13:33:31.656Z,12340
2023-05-14T13:34:45.897Z,13877
2023-05-14T13:36:00.112Z,75785
2023-05-14T13:37:14.340Z,11680
2023-05-14T13:38:28.637Z,19973
2023-05-14T13:39:42.896Z,75818
2023-05-14T13:40:57.114Z,72393
2023-05-14T13:42:11.333Z,80877
2023-05-14T13:43:25.567Z,83404
2023-05-14T13:44:39.861Z,26190
2023-05-14T13:45:54.103Z,21585
2023-05-14T13:47:08.341Z,80894
2023-05-14T13:48:22.567Z,83690
2023-05-14T13:49:36.798Z,67572
2023-05-14T13:50:51.083Z,16417
2023-05-14T13:52:05.333Z,14488
2023-05-14T13:53:19.561Z,18504
2023-05-14T13:54:33.844Z,75552
2023-05-14T13:55:47.186Z,23358
2023-05-14T13:57:01.459Z,21189
2023-05-14T13:58:14.765Z,82879
2023-05-14T13:59:28.979Z,83469
2023-05-14T14:00:43.282Z,70679
2023-05-14T14:01:57.519Z,16600
2023-05-14T14:03:11.760Z,13752
2023-05-14T14:04:25.976Z,18311
2023-05-14T14:05:40.214Z,15353
2023-05-14T14:06:54.513Z,14597
2023-05-14T14:08:08.761Z,13988
2023-05-14T14:09:22.984Z,13991
2023-05-14T14:10:37.202Z,24188
2023-05-14T14:11:51.436Z,32955
2023-05-14T14:13:05.734Z,21406
2023-05-14T14:14:19.968Z,15161
2023-05-14T14:15:34.193Z,11629
2023-05-14T14:16:48.423Z,11152
2023-05-14T14:18:02.664Z,11202
2023-05-14T14:19:16.959Z,10682
2023-05-14T14:20:31.190Z,11068
2023-05-14T14:21:45.415Z,12961
2023-05-14T14:22:59.656Z,10368
2023-05-14T14:24:13.873Z,9924
2023-05-14T14:25:28.188Z,11110
2023-05-14T14:26:42.417Z,26016
2023-05-14T14:27:56.648Z,18524
2023-05-14T14:29:10.922Z,24103
2023-05-14T14:30:24.264Z,13901
2023-05-14T14:31:38.561Z,14332
2023-05-14T14:32:52.842Z,27246
2023-05-14T14:34:07.128Z,12270
2023-05-14T14:35:21.407Z,13904
2023-05-14T14:36:35.700Z,10564
2023-05-14T14:37:49.986Z,9277
2023-05-14T14:39:04.269Z,12832
2023-05-14T14:40:18.561Z,10538
2023-05-14T14:41:32.846Z,9578
2023-05-14T14:42:47.150Z,9797
2023-05-14T14:44:01.434Z,25394
2023-05-14T14:45:15.699Z,13357
2023-05-14T14:46:29.034Z,18370
2023-05-14T14:47:43.333Z,20340
2023-05-14T14:48:57.629Z,10285
2023-05-14T14:50:11.901Z,9574
2023-05-14T14:51:25.212Z,9133
2023-05-14T14:52:39.498Z,9008
2023-05-14T14:53:53.756Z,9140
2023-05-14T14:55:07.964Z,8747
2023-05-14T14:56:22.201Z,8492
2023-05-14T14:57:36.420Z,8429
2023-05-14T14:58:50.716Z,8375
2023-05-14T15:00:04.971Z,8593
2023-05-14T15:01:19.194Z,8674
2023-05-14T15:02:33.413Z,8834
2023-05-14T15:03:47.641Z,8763
2023-05-14T15:05:01.945Z,8447
2023-05-14T15:06:16.186Z,7917
2023-05-14T15:07:30.406Z,7230
2023-05-14T15:08:44.639Z,7383
2023-05-14T15:09:58.876Z,7442
2023-05-14T15:11:13.163Z,7383
2023-05-14T15:12:27.411Z,7302
2023-05-14T15:13:41.645Z,7227
2023-05-14T15:14:55.853Z,6893
2023-05-14T15:16:10.082Z,6514
2023-05-14T15:17:24.381Z,6627
2023-05-14T15:18:38.634Z,6424
2023-05-14T15:19:52.876Z,6685
2023-05-14T15:21:07.091Z,6525
2023-05-14T15:22:21.364Z,6417
2023-05-14T15:23:35.665Z,6181
2023-05-14T15:24:49.943Z,6069
2023-05-14T15:26:03.251Z,5995
2023-05-14T15:27:17.482Z,5859
2023-05-14T15:28:31.779Z,5985
2023-05-14T15:29:46.023Z,5613
2023-05-14T15:31:00.354Z,5399
2023-05-14T15:32:14.581Z,5217
2023-05-14T15:33:28.811Z,5267
2023-05-14T15:34:43.127Z,5328
2023-05-14T15:35:57.355Z,5547
2023-05-14T15:37:11.582Z,5537
2023-05-14T15:38:25.812Z,5365
2023-05-14T15:39:40.047Z,5255
2023-05-14T15:40:54.341Z,4937
2023-05-14T15:42:08.570Z,4666
2023-05-14T15:43:22.799Z,4660
2023-05-14T15:44:37.041Z,4628
2023-05-14T15:45:51.256Z,4589
2023-05-14T15:47:05.559Z,4642
2023-05-14T15:48:19.796Z,4729
2023-05-14T15:49:34.143Z,4817
2023-05-14T15:50:48.380Z,4880
2023-05-14T15:52:02.599Z,4909
2023-05-14T15:53:16.909Z,4966
2023-05-14T15:54:31.145Z,5005
2023-05-14T15:55:45.369Z,5029
2023-05-14T15:56:59.744Z,5047
2023-05-14T15:58:13.960Z,5066
2023-05-14T15:59:28.262Z,5062
2023-05-14T16:00:42.501Z,5111
2023-05-14T16:01:56.732Z,5263
2023-05-14T16:03:11.088Z,5340
2023-05-14T16:04:25.311Z,5341
2023-05-14T16:05:39.600Z,5403
2023-05-14T16:06:53.841Z,5456
2023-05-14T16:08:08.079Z,5446
2023-05-14T16:09:22.298Z,5432
2023-05-14T16:10:36.520Z,5510
2023-05-14T16:11:50.831Z,5429
2023-05-14T16:13:05.077Z,5295
2023-05-14T16:14:19.297Z,5217
2023-05-14T16:15:33.512Z,5116
2023-05-14T16:16:47.750Z,5048
2023-05-14T16:18:02.058Z,5014
2023-05-14T16:19:16.280Z,4903
2023-05-14T16:20:30.518Z,4796
2023-05-14T16:21:44.743Z,4647
2023-05-14T16:22:58.975Z,4572
2023-05-14T16:24:13.277Z,4416
2023-05-14T16:25:27.516Z,4261
2023-05-14T16:26:41.737Z,4163
2023-05-14T16:27:55.969Z,4219
2023-05-14T16:29:10.339Z,4252
2023-05-14T16:30:24.632Z,4241
2023-05-14T16:31:38.866Z,4220
2023-05-14T16:32:53.105Z,4215
2023-05-14T16:34:07.321Z,4291
2023-05-14T16:35:21.556Z,4327
2023-05-14T16:36:35.855Z,4373
2023-05-14T16:37:50.102Z,4344
2023-05-14T16:39:04.328Z,4334
2023-05-14T16:40:18.548Z,4340
2023-05-14T16:41:32.771Z,4323
2023-05-14T16:42:47.078Z,4231